createdAt,value
2023-01-12T00:30:52.246Z,101181.27
2023-01-12T00:33:19.473Z,101178.98
2023-01-12T00:35:46.342Z,101178.06
2023-01-12T00:38:12.942Z,101178.68
2023-01-12T00:40:39.490Z,101180.41
2023-01-12T00:43:25.041Z,101169.66
2023-01-12T00:45:51.663Z,101170.73
2023-01-12T00:48:18.240Z,101163.78
2023-01-12T00:50:47.622Z,101165.10
2023-01-12T00:53:14.138Z,101166.64
2023-01-12T00:55:43.011Z,101165.10
2023-01-12T00:58:09.963Z,101163.42
2023-01-12T01:00:39.493Z,101159.38
2023-01-12T01:03:07.205Z,101160.23
2023-01-12T01:05:34.023Z,101158.52
2023-01-12T01:08:00.460Z,101159.67
2023-01-12T01:10:27.419Z,101159.24
2023-01-12T01:12:53.965Z,101163.17
2023-01-12T01:15:20.436Z,101167.34
2023-01-12T01:17:49.465Z,101161.58
2023-01-12T01:20:16.163Z,101163.20
2023-01-12T01:22:43.026Z,101165.36
2023-01-12T01:25:09.658Z,101165.80
2023-01-12T01:27:36.213Z,101169.13
2023-01-12T01:30:02.869Z,101170.83
2023-01-12T01:32:29.633Z,101175.77
2023-01-12T01:34:56.034Z,101178.33
2023-01-12T01:37:22.483Z,101176.67
2023-01-12T01:39:49.075Z,101184.30
2023-01-12T01:42:28.025Z,101186.48
2023-01-12T01:44:56.779Z,101192.21
2023-01-12T01:47:29.744Z,101195.36
2023-01-12T01:49:56.261Z,101196.09
2023-01-12T01:52:36.199Z,101199.32
2023-01-12T01:55:08.277Z,101201.58
2023-01-12T01:57:43.090Z,101196.20
2023-01-12T02:00:10.593Z,101194.93
2023-01-12T02:02:37.304Z,101196.11
2023-01-12T02:05:04.086Z,101197.38
2023-01-12T02:07:31.597Z,101203.08
2023-01-12T02:09:58.006Z,101201.69
2023-01-12T02:12:42.921Z,101198.09
2023-01-12T02:15:28.407Z,101196.59
2023-01-12T02:18:27.394Z,101199.63
2023-01-12T02:21:09.841Z,101190.80
2023-01-12T02:24:13.788Z,101188.18
2023-01-12T02:27:02.024Z,101190.23
2023-01-12T02:29:50.512Z,101191.09
2023-01-12T02:32:29.266Z,101194.23
2023-01-12T02:35:04.527Z,101197.73
2023-01-12T02:37:47.757Z,101192.13
2023-01-12T02:40:43.686Z,101187.28
2023-01-12T02:43:16.061Z,101181.23
2023-01-12T02:45:54.099Z,101179.92
2023-01-12T02:48:33.993Z,101164.43
2023-01-12T02:51:11.299Z,101155.99
2023-01-12T02:53:59.220Z,101152.02
2023-01-12T02:56:37.342Z,101154.66
2023-01-12T02:59:08.787Z,101150.46
2023-01-12T03:01:35.394Z,101150.83
2023-01-12T03:04:03.283Z,101146.52
2023-01-12T03:06:42.055Z,101146.65
2023-01-12T03:09:08.511Z,101140.38
2023-01-12T03:11:35.450Z,101139.17
2023-01-12T03:14:02.595Z,101134.34
2023-01-12T03:16:31.237Z,101128.48
2023-01-12T03:19:03.296Z,101119.33
2023-01-12T03:21:32.287Z,101113.27
2023-01-12T03:24:04.078Z,101113.17
2023-01-12T03:26:32.451Z,101113.98
2023-01-12T03:29:14.727Z,101110.85
2023-01-12T03:31:41.384Z,101104.06
2023-01-12T03:34:08.561Z,101102.87
2023-01-12T03:36:45.821Z,101104.05
2023-01-12T03:39:36.995Z,101102.48
2023-01-12T03:42:11.563Z,101100.88
2023-01-12T03:44:40.695Z,101094.91
2023-01-12T03:47:17.477Z,101097.74
2023-01-12T03:49:46.944Z,101103.23
2023-01-12T03:52:13.456Z,101106.98
2023-01-12T03:54:40.049Z,101107.14
2023-01-12T03:57:06.952Z,101110.04
2023-01-12T03:59:33.569Z,101106.77
2023-01-12T04:02:00.137Z,101103.20
2023-01-12T04:04:26.807Z,101105.14
2023-01-12T04:06:53.296Z,101098.91
2023-01-12T10:29:46.020Z,100982.47
2023-01-12T10:32:13.546Z,100977.00
2023-01-12T10:34:51.245Z,100975.61
2023-01-12T10:37:18.077Z,100975.10
2023-01-12T10:39:45.073Z,100977.31
2023-01-12T10:42:36.589Z,100977.16
2023-01-12T10:45:23.166Z,100978.70
2023-01-12T10:47:54.213Z,100978.69
2023-01-12T10:50:25.162Z,100981.96
2023-01-12T10:53:01.332Z,100981.45
2023-01-12T10:55:35.084Z,100976.27
2023-01-12T10:58:02.216Z,100979.72
2023-01-12T11:00:29.803Z,100980.41
2023-01-12T11:02:56.599Z,100976.28
2023-01-12T11:05:38.513Z,100980.07
2023-01-12T11:08:26.382Z,100976.99
2023-01-12T11:10:53.161Z,100973.03
2023-01-12T11:13:26.875Z,100967.69
2023-01-12T11:16:20.120Z,100961.30
2023-01-12T11:18:54.778Z,100966.45
2023-01-12T11:21:23.333Z,100962.66
2023-01-12T11:24:15.029Z,100962.81
2023-01-12T11:27:00.382Z,100960.92
2023-01-12T11:29:38.544Z,100965.92
2023-01-12T11:32:32.325Z,100967.50
2023-01-12T11:35:37.136Z,100967.51
2023-01-12T11:38:09.693Z,100963.55
2023-01-12T11:40:37.731Z,100965.96
2023-01-12T11:43:55.935Z,100968.20
2023-01-12T11:46:47.747Z,100962.68
2023-01-12T11:49:27.153Z,100964.04
2023-01-12T11:51:56.504Z,100958.02
2023-01-12T11:54:23.243Z,100952.84
2023-01-12T11:56:49.901Z,100949.05
2023-01-12T11:59:24.843Z,100945.09
2023-01-12T12:02:10.224Z,100941.98
2023-01-12T12:16:33.006Z,100934.20
2023-01-12T12:19:18.445Z,100934.73
2023-01-12T12:21:49.297Z,100937.00
2023-01-12T12:24:18.986Z,100936.64
2023-01-12T12:26:51.382Z,100936.64
2023-01-12T12:29:27.072Z,100930.79
2023-01-12T12:31:56.867Z,100925.27
2023-01-12T12:35:21.389Z,100926.99
2023-01-12T12:38:22.219Z,100925.27
2023-01-12T12:41:24.183Z,100923.89
2023-01-12T12:44:33.571Z,100924.41
2023-01-12T12:47:21.593Z,100930.09
2023-01-12T12:49:48.305Z,100933.38
2023-01-12T12:52:15.053Z,100933.38
2023-01-12T12:54:41.742Z,100939.05
2023-01-12T12:57:15.537Z,100934.41
2023-01-12T12:59:42.237Z,100931.48
2023-01-12T13:02:31.641Z,100929.92
2023-01-12T13:04:59.306Z,100930.61
2023-01-12T13:07:25.976Z,100930.79
2023-01-12T13:10:01.427Z,100933.37
2023-01-12T13:12:33.069Z,100933.55
2023-01-12T13:15:18.445Z,100927.69
2023-01-12T13:17:45.786Z,100928.20
2023-01-12T13:20:24.708Z,100929.75
2023-01-12T13:22:52.111Z,100930.77
2023-01-12T13:25:24.850Z,100930.79
2023-01-12T13:27:56.435Z,100934.41
2023-01-12T13:30:29.389Z,100938.20
2023-01-12T13:33:16.867Z,100941.64
2023-01-12T13:35:45.057Z,100934.75
2023-01-12T13:38:32.171Z,100940.95
2023-01-12T13:41:14.402Z,100938.85
2023-01-12T13:43:47.698Z,100938.16
2023-01-12T13:46:25.171Z,100936.09
2023-01-12T13:48:53.896Z,100939.70
2023-01-12T13:51:40.525Z,100940.39
2023-01-12T13:54:11.109Z,100937.99
2023-01-12T13:56:37.937Z,100936.09
2023-01-12T13:59:07.766Z,100931.78
2023-01-12T14:01:36.309Z,100937.47
2023-01-12T14:04:10.201Z,100940.91
2023-01-12T14:06:55.633Z,100937.98
2023-01-12T14:09:25.058Z,100939.02
2023-01-12T14:12:01.792Z,100940.73
2023-01-12T14:15:11.421Z,100941.08
2023-01-12T14:17:50.252Z,100942.27
2023-01-12T14:20:21.555Z,100944.86
2023-01-12T14:22:48.562Z,100945.20
2023-01-12T14:25:22.960Z,100946.23
2023-01-12T14:27:50.930Z,100946.59
2023-01-12T14:30:17.734Z,100946.58
2023-01-12T14:32:45.074Z,100948.48
2023-01-12T14:35:31.334Z,100951.75
2023-01-12T14:37:59.564Z,100957.10
2023-01-12T14:40:30.876Z,100957.45
2023-01-12T14:43:26.839Z,100958.98
2023-01-12T14:46:27.689Z,100960.89
2023-01-12T14:49:19.951Z,100960.88
2023-01-12T14:51:54.323Z,100961.05
2023-01-12T14:54:25.490Z,100963.63
2023-01-12T14:57:02.699Z,100954.85
2023-01-12T14:59:33.987Z,100952.61
2023-01-12T15:02:13.125Z,100951.59
2023-01-12T15:04:56.028Z,100949.69
2023-01-12T15:07:22.831Z,100951.06
2023-01-12T15:09:57.621Z,100950.37
2023-01-12T15:12:30.420Z,100955.37
2023-01-12T15:15:17.290Z,100956.57
2023-01-12T15:18:02.727Z,100951.75
2023-01-12T15:20:49.197Z,100949.67
2023-01-12T15:23:34.424Z,100944.86
2023-01-12T15:26:01.076Z,100952.95
2023-01-12T15:28:31.376Z,100949.84
2023-01-12T15:30:58.393Z,100952.77
2023-01-12T15:33:25.159Z,100949.16
2023-01-12T15:35:52.570Z,100956.23
2023-01-12T15:38:20.762Z,100953.81
2023-01-12T15:40:48.059Z,100953.30
2023-01-12T15:43:15.946Z,100955.89
2023-01-12T15:45:46.325Z,100952.77
2023-01-12T15:48:14.255Z,100960.70
2023-01-12T15:50:42.354Z,100960.53
2023-01-12T15:53:12.906Z,100962.59
2023-01-12T15:55:40.030Z,100965.17
2023-01-12T15:58:06.982Z,100961.73
2023-01-12T16:00:33.728Z,100960.87
2023-01-12T16:03:00.368Z,100959.67
2023-01-12T16:05:27.225Z,100958.63
2023-01-12T16:07:53.964Z,100957.25
2023-01-12T16:10:21.151Z,100955.52
2023-01-12T16:12:48.062Z,100952.59
2023-01-12T16:15:22.305Z,100949.33
2023-01-12T16:17:49.093Z,100948.30
2023-01-12T16:20:16.857Z,100952.77
2023-01-12T16:22:43.722Z,100952.95
2023-01-12T16:25:10.953Z,100948.64
2023-01-12T16:27:38.250Z,100943.99
2023-01-12T16:30:06.050Z,100942.10
2023-01-12T16:32:32.861Z,100936.23
2023-01-12T16:34:59.561Z,100933.14
2023-01-12T16:37:29.906Z,100933.14
2023-01-12T16:39:56.924Z,100934.52
2023-01-12T16:42:23.595Z,100935.89
2023-01-12T16:44:50.328Z,100930.55
2023-01-12T16:47:18.629Z,100929.68
2023-01-12T16:49:48.283Z,100926.39
2023-01-12T16:52:15.670Z,100923.96
2023-01-12T16:54:42.802Z,100916.04
2023-01-12T16:57:10.533Z,100917.75
2023-01-12T16:59:37.337Z,100911.39
2023-01-12T17:02:08.013Z,100904.84
2023-01-12T17:04:35.999Z,100904.67
2023-01-12T17:07:03.536Z,100906.73
2023-01-12T17:09:30.352Z,100912.24
2023-01-12T17:11:58.371Z,100915.50
2023-01-12T17:14:25.569Z,100910.34
2023-01-12T17:16:54.401Z,100907.75
2023-01-12T17:19:21.742Z,100901.22
2023-01-12T17:21:49.896Z,100899.84
2023-01-12T17:24:18.385Z,100900.54
2023-01-12T17:26:45.615Z,100902.25
2023-01-12T17:29:12.375Z,100907.23
2023-01-12T17:31:39.841Z,100903.78
2023-01-12T17:34:06.973Z,100908.95
2023-01-12T17:36:33.826Z,100912.91
2023-01-12T17:39:01.359Z,100916.19
2023-01-12T17:41:46.971Z,100922.04
2023-01-12T17:44:13.767Z,100921.52
2023-01-12T17:46:40.476Z,100918.23
2023-01-12T17:49:08.077Z,100916.70
2023-01-12T17:51:35.154Z,100912.55
2023-01-12T17:54:02.533Z,100912.90
2023-01-12T17:56:31.439Z,100907.22
2023-01-12T17:58:58.397Z,100904.64
2023-01-12T18:01:26.172Z,100899.99
2023-01-12T18:03:53.155Z,100903.78
2023-01-12T18:06:26.573Z,100901.88
2023-01-12T18:08:53.952Z,100904.63
2023-01-12T18:11:20.806Z,100907.73
2023-01-12T18:13:47.646Z,100905.13
2023-01-12T18:16:14.575Z,100899.97
2023-01-12T18:18:42.439Z,100899.80
2023-01-12T18:21:10.534Z,100898.94
2023-01-12T18:23:38.839Z,100902.52
2023-01-12T18:26:06.641Z,100899.91
2023-01-12T18:28:33.563Z,100906.27
2023-01-12T18:31:08.575Z,100899.05
2023-01-12T18:33:35.470Z,100900.08
2023-01-12T18:36:07.744Z,100895.95
2023-01-12T18:38:34.386Z,100896.63
2023-01-12T18:41:22.998Z,100899.23
2023-01-12T18:43:51.457Z,100902.31
2023-01-12T18:46:18.977Z,100900.23
2023-01-12T18:48:46.346Z,100902.64
2023-01-12T18:51:32.809Z,100902.29
2023-01-12T18:53:59.991Z,100905.54
2023-01-12T18:56:26.713Z,100907.60
2023-01-12T18:58:53.480Z,100905.36
2023-01-12T19:01:24.563Z,100906.57
2023-01-12T19:03:51.922Z,100901.59
2023-01-12T19:06:20.151Z,100898.48
2023-01-12T19:09:05.466Z,100896.42
2023-01-12T19:11:32.158Z,100903.47
2023-01-12T19:14:17.430Z,100903.30
2023-01-12T19:17:02.987Z,100899.69
2023-01-12T19:19:30.863Z,100899.02
2023-01-12T19:22:16.727Z,100899.52
2023-01-12T19:25:02.027Z,100899.69
2023-01-12T19:27:47.383Z,100902.61
2023-01-12T19:30:14.216Z,100902.09
2023-01-12T19:32:40.918Z,100904.67
2023-01-12T19:35:11.417Z,100903.13
2023-01-12T19:37:40.193Z,100905.02
2023-01-12T19:40:16.408Z,100908.47
2023-01-12T19:43:01.859Z,100909.16
2023-01-12T19:45:28.690Z,100908.64
2023-01-12T19:47:55.382Z,100902.11
2023-01-12T19:50:22.142Z,100904.52
2023-01-12T19:52:48.853Z,100909.84
2023-01-12T19:55:16.345Z,100910.02
2023-01-12T23:12:18.756Z,100877.14
2023-01-12T23:14:45.539Z,100875.14
2023-01-12T23:17:12.859Z,100875.48
2023-01-12T23:19:39.860Z,100875.33
2023-01-12T23:22:06.628Z,100873.80
2023-01-12T23:24:33.524Z,100867.10
2023-01-12T23:27:00.359Z,100864.86
2023-01-12T23:29:27.297Z,100860.91
2023-01-12T23:31:54.032Z,100859.70
2023-01-12T23:34:21.010Z,100852.84
2023-01-12T23:36:47.692Z,100849.39
2023-01-12T23:39:14.440Z,100843.03
2023-01-12T23:41:41.325Z,100842.34
2023-01-12T23:44:09.224Z,100845.61
2023-01-12T23:46:37.922Z,100843.38
2023-01-12T23:49:04.895Z,100846.98
2023-01-12T23:51:31.803Z,100843.55
2023-01-12T23:53:59.812Z,100847.33
2023-01-12T23:56:30.881Z,100847.16
2023-01-12T23:58:57.885Z,100853.88
